sensor_id;sensor_type;location;lat;lon;timestamp;temperature;humidity
20985;DHT22;10651;47.552;7.606;2023-08-17T06:29:53;22.60;99.90
20985;DHT22;10651;47.552;7.606;2023-08-17T06:32:19;22.70;99.90
20985;DHT22;10651;47.552;7.606;2023-08-17T06:34:47;22.60;99.90
20985;DHT22;10651;47.552;7.606;2023-08-17T06:37:14;22.60;99.90
20985;DHT22;10651;47.552;7.606;2023-08-17T06:39:39;22.60;99.90
20985;DHT22;10651;47.552;7.606;2023-08-17T06:48:49;22.60;99.90
20985;DHT22;10651;47.552;7.606;2023-08-17T06:51:15;22.70;99.90
20985;DHT22;10651;47.552;7.606;2023-08-17T06:53:41;22.80;99.90
20985;DHT22;10651;47.552;7.606;2023-08-17T06:56:09;22.70;99.90
20985;DHT22;10651;47.552;7.606;2023-08-17T06:58:35;22.70;99.90
20985;DHT22;10651;47.552;7.606;2023-08-17T07:01:01;22.80;99.90
20985;DHT22;10651;47.552;7.606;2023-08-17T07:03:26;22.80;99.90
20985;DHT22;10651;47.552;7.606;2023-08-17T07:05:52;22.80;99.90
20985;DHT22;10651;47.552;7.606;2023-08-17T07:08:18;22.80;99.90
20985;DHT22;10651;47.552;7.606;2023-08-17T07:10:44;22.90;99.90
20985;DHT22;10651;47.552;7.606;2023-08-17T07:13:10;22.90;99.90
20985;DHT22;10651;47.552;7.606;2023-08-17T07:15:36;22.90;99.90
20985;DHT22;10651;47.552;7.606;2023-08-17T07:18:02;22.90;99.90
20985;DHT22;10651;47.552;7.606;2023-08-17T07:20:28;22.90;99.90
20985;DHT22;10651;47.552;7.606;2023-08-17T07:22:54;23.00;99.90
20985;DHT22;10651;47.552;7.606;2023-08-17T07:25:19;23.00;99.90
20985;DHT22;10651;47.552;7.606;2023-08-17T07:27:45;23.00;99.90
20985;DHT22;10651;47.552;7.606;2023-08-17T07:30:11;23.10;99.90
20985;DHT22;10651;47.552;7.606;2023-08-17T07:32:39;23.10;99.90
20985;DHT22;10651;47.552;7.606;2023-08-17T07:35:05;23.20;99.90
20985;DHT22;10651;47.552;7.606;2023-08-17T07:37:31;23.20;99.90
20985;DHT22;10651;47.552;7.606;2023-08-17T07:39:58;23.20;99.90
20985;DHT22;10651;47.552;7.606;2023-08-17T07:42:25;23.30;99.90
20985;DHT22;10651;47.552;7.606;2023-08-17T07:44:50;23.30;99.90
20985;DHT22;10651;47.552;7.606;2023-08-17T07:47:16;23.40;99.90
20985;DHT22;10651;47.552;7.606;2023-08-17T07:49:42;23.40;99.90
20985;DHT22;10651;47.552;7.606;2023-08-17T07:52:08;23.50;99.90
20985;DHT22;10651;47.552;7.606;2023-08-17T07:54:34;23.40;99.90
20985;DHT22;10651;47.552;7.606;2023-08-17T07:57:00;23.50;99.90
20985;DHT22;10651;47.552;7.606;2023-08-17T07:59:26;23.60;99.90
20985;DHT22;10651;47.552;7.606;2023-08-17T08:01:51;23.60;99.90
20985;DHT22;10651;47.552;7.606;2023-08-17T08:04:17;23.60;99.90
20985;DHT22;10651;47.552;7.606;2023-08-17T08:06:43;23.60;99.90
20985;DHT22;10651;47.552;7.606;2023-08-17T08:09:09;23.60;99.90
20985;DHT22;10651;47.552;7.606;2023-08-17T08:11:34;23.60;99.90
20985;DHT22;10651;47.552;7.606;2023-08-17T08:14:00;23.60;99.90
20985;DHT22;10651;47.552;7.606;2023-08-17T08:16:27;23.70;99.90
20985;DHT22;10651;47.552;7.606;2023-08-17T08:18:54;23.70;99.90
20985;DHT22;10651;47.552;7.606;2023-08-17T08:21:20;23.80;99.90
20985;DHT22;10651;47.552;7.606;2023-08-17T08:23:46;23.80;99.90
20985;DHT22;10651;47.552;7.606;2023-08-17T08:26:12;24.00;99.90
20985;DHT22;10651;47.552;7.606;2023-08-17T08:28:38;24.00;99.90
20985;DHT22;10651;47.552;7.606;2023-08-17T08:31:03;23.90;99.90
20985;DHT22;10651;47.552;7.606;2023-08-17T08:33:30;23.80;99.90
20985;DHT22;10651;47.552;7.606;2023-08-17T08:35:56;23.90;99.90
20985;DHT22;10651;47.552;7.606;2023-08-17T08:38:22;24.00;99.90
20985;DHT22;10651;47.552;7.606;2023-08-17T08:40:48;24.00;99.90
20985;DHT22;10651;47.552;7.606;2023-08-17T08:43:17;24.10;99.90
20985;DHT22;10651;47.552;7.606;2023-08-17T08:45:43;24.00;99.90
20985;DHT22;10651;47.552;7.606;2023-08-17T08:48:13;24.00;99.90
20985;DHT22;10651;47.552;7.606;2023-08-17T08:50:41;24.00;99.90
20985;DHT22;10651;47.552;7.606;2023-08-17T08:53:13;23.90;99.90
20985;DHT22;10651;47.552;7.606;2023-08-17T08:55:45;23.90;99.90
20985;DHT22;10651;47.552;7.606;2023-08-17T08:58:15;23.90;99.90
20985;DHT22;10651;47.552;7.606;2023-08-17T09:00:41;23.90;99.90
20985;DHT22;10651;47.552;7.606;2023-08-17T09:03:08;23.90;99.90
20985;DHT22;10651;47.552;7.606;2023-08-17T09:05:35;24.00;99.90
20985;DHT22;10651;47.552;7.606;2023-08-17T09:08:02;24.00;99.90
20985;DHT22;10651;47.552;7.606;2023-08-17T09:10:29;24.00;99.90
20985;DHT22;10651;47.552;7.606;2023-08-17T09:12:55;24.00;99.90
20985;DHT22;10651;47.552;7.606;2023-08-17T09:15:20;24.10;99.90
20985;DHT22;10651;47.552;7.606;2023-08-17T09:17:46;24.20;99.90
20985;DHT22;10651;47.552;7.606;2023-08-17T09:20:43;24.20;99.90
20985;DHT22;10651;47.552;7.606;2023-08-17T09:25:42;24.50;99.90
20985;DHT22;10651;47.552;7.606;2023-08-17T09:28:13;24.80;99.90
20985;DHT22;10651;47.552;7.606;2023-08-17T09:31:00;25.30;99.90
20985;DHT22;10651;47.552;7.606;2023-08-17T09:33:29;25.50;99.90
20985;DHT22;10651;47.552;7.606;2023-08-17T09:35:57;25.80;99.90
20985;DHT22;10651;47.552;7.606;2023-08-17T09:38:24;26.10;99.90
20985;DHT22;10651;47.552;7.606;2023-08-17T09:40:50;26.40;99.90
20985;DHT22;10651;47.552;7.606;2023-08-17T09:43:18;26.50;99.90
20985;DHT22;10651;47.552;7.606;2023-08-17T09:45:47;26.50;99.90
20985;DHT22;10651;47.552;7.606;2023-08-17T09:48:16;26.70;99.90
20985;DHT22;10651;47.552;7.606;2023-08-17T09:50:44;26.40;99.90
20985;DHT22;10651;47.552;7.606;2023-08-17T09:53:14;26.20;99.90
20985;DHT22;10651;47.552;7.606;2023-08-17T09:55:41;26.10;99.90
20985;DHT22;10651;47.552;7.606;2023-08-17T09:58:08;26.50;99.90
20985;DHT22;10651;47.552;7.606;2023-08-17T10:00:34;26.70;99.90
20985;DHT22;10651;47.552;7.606;2023-08-17T10:03:04;26.80;99.90
20985;DHT22;10651;47.552;7.606;2023-08-17T10:05:34;26.80;99.90
20985;DHT22;10651;47.552;7.606;2023-08-17T10:08:02;26.70;99.90
20985;DHT22;10651;47.552;7.606;2023-08-17T10:10:30;26.90;99.90
20985;DHT22;10651;47.552;7.606;2023-08-17T10:13:11;27.20;99.90
20985;DHT22;10651;47.552;7.606;2023-08-17T10:15:59;27.30;99.90
20985;DHT22;10651;47.552;7.606;2023-08-17T10:18:42;27.20;99.90
20985;DHT22;10651;47.552;7.606;2023-08-17T10:21:28;27.20;99.90
20985;DHT22;10651;47.552;7.606;2023-08-17T10:23:55;27.50;99.90
20985;DHT22;10651;47.552;7.606;2023-08-17T10:26:23;27.30;99.90
20985;DHT22;10651;47.552;7.606;2023-08-17T10:28:51;27.30;99.90
20985;DHT22;10651;47.552;7.606;2023-08-17T10:31:17;27.40;99.90
20985;DHT22;10651;47.552;7.606;2023-08-17T10:33:44;27.60;99.90
20985;DHT22;10651;47.552;7.606;2023-08-17T10:36:13;27.70;99.90
20985;DHT22;10651;47.552;7.606;2023-08-17T10:38:40;27.70;99.90
20985;DHT22;10651;47.552;7.606;2023-08-17T10:41:14;27.90;99.90
20985;DHT22;10651;47.552;7.606;2023-08-17T10:43:56;28.10;99.90
20985;DHT22;10651;47.552;7.606;2023-08-17T10:46:36;28.20;99.90
20985;DHT22;10651;47.552;7.606;2023-08-17T10:49:06;28.20;99.90
20985;DHT22;10651;47.552;7.606;2023-08-17T10:51:33;28.50;99.90
20985;DHT22;10651;47.552;7.606;2023-08-17T10:54:02;28.50;99.90
20985;DHT22;10651;47.552;7.606;2023-08-17T10:56:29;28.60;99.90
20985;DHT22;10651;47.552;7.606;2023-08-17T10:58:59;28.50;99.90
20985;DHT22;10651;47.552;7.606;2023-08-17T11:01:36;28.60;99.90
20985;DHT22;10651;47.552;7.606;2023-08-17T11:04:24;28.60;99.90
20985;DHT22;10651;47.552;7.606;2023-08-17T11:07:03;28.90;99.90
20985;DHT22;10651;47.552;7.606;2023-08-17T11:09:29;29.20;99.90
20985;DHT22;10651;47.552;7.606;2023-08-17T12:14:09;31.10;99.90
20985;DHT22;10651;47.552;7.606;2023-08-17T12:16:48;30.90;99.90
20985;DHT22;10651;47.552;7.606;2023-08-17T12:19:14;30.90;99.90
20985;DHT22;10651;47.552;7.606;2023-08-17T12:21:45;31.00;99.90
20985;DHT22;10651;47.552;7.606;2023-08-17T12:24:13;30.80;99.90
20985;DHT22;10651;47.552;7.606;2023-08-17T12:26:47;30.60;99.90
20985;DHT22;10651;47.552;7.606;2023-08-17T12:36:58;31.30;99.90
20985;DHT22;10651;47.552;7.606;2023-08-17T12:39:24;31.40;99.90
20985;DHT22;10651;47.552;7.606;2023-08-17T13:19:19;32.00;99.90
20985;DHT22;10651;47.552;7.606;2023-08-17T13:21:45;31.70;99.90
20985;DHT22;10651;47.552;7.606;2023-08-17T13:24:11;31.60;99.90
20985;DHT22;10651;47.552;7.606;2023-08-17T13:31:55;32.20;99.90
20985;DHT22;10651;47.552;7.606;2023-08-17T13:37:06;32.60;99.90
20985;DHT22;10651;47.552;7.606;2023-08-17T13:42:08;32.60;99.90
20985;DHT22;10651;47.552;7.606;2023-08-17T14:10:22;31.30;99.90
20985;DHT22;10651;47.552;7.606;2023-08-17T14:34:17;32.00;99.90
20985;DHT22;10651;47.552;7.606;2023-08-17T16:43:46;30.20;99.90
20985;DHT22;10651;47.552;7.606;2023-08-17T17:24:20;29.80;99.90
20985;DHT22;10651;47.552;7.606;2023-08-17T17:52:40;28.90;99.90
20985;DHT22;10651;47.552;7.606;2023-08-17T18:46:53;27.40;99.90
20985;DHT22;10651;47.552;7.606;2023-08-17T18:49:18;27.30;99.90
20985;DHT22;10651;47.552;7.606;2023-08-17T19:07:36;27.00;99.90
20985;DHT22;10651;47.552;7.606;2023-08-17T19:10:03;26.90;99.90
20985;DHT22;10651;47.552;7.606;2023-08-17T20:17:23;25.60;99.90
20985;DHT22;10651;47.552;7.606;2023-08-17T20:19:48;25.40;99.90
20985;DHT22;10651;47.552;7.606;2023-08-17T20:22:17;25.20;99.90
20985;DHT22;10651;47.552;7.606;2023-08-17T20:24:53;25.20;99.90
20985;DHT22;10651;47.552;7.606;2023-08-17T20:30:00;25.00;99.90
20985;DHT22;10651;47.552;7.606;2023-08-17T20:32:26;25.00;99.90
20985;DHT22;10651;47.552;7.606;2023-08-17T20:34:52;25.00;99.90
20985;DHT22;10651;47.552;7.606;2023-08-17T20:37:20;24.90;99.90
20985;DHT22;10651;47.552;7.606;2023-08-17T20:39:45;24.80;99.90
20985;DHT22;10651;47.552;7.606;2023-08-17T20:44:47;24.70;99.90
20985;DHT22;10651;47.552;7.606;2023-08-17T21:10:31;24.20;99.90
20985;DHT22;10651;47.552;7.606;2023-08-17T21:13:08;24.20;99.90
20985;DHT22;10651;47.552;7.606;2023-08-17T21:15:37;24.00;99.90
20985;DHT22;10651;47.552;7.606;2023-08-17T21:18:03;24.10;99.90
20985;DHT22;10651;47.552;7.606;2023-08-17T21:20:29;24.10;99.90
20985;DHT22;10651;47.552;7.606;2023-08-17T21:22:56;24.00;99.90
20985;DHT22;10651;47.552;7.606;2023-08-17T21:25:35;24.00;99.90
20985;DHT22;10651;47.552;7.606;2023-08-17T21:28:13;23.80;99.90
20985;DHT22;10651;47.552;7.606;2023-08-17T21:31:19;23.80;99.90
